Time,TemperatureF,DewpointF,PressureIn,WindDirection,WindDirectionDegrees,WindSpeedMPH,WindSpeedGustMPH,Humidity,HourlyPrecipIn,Conditions,Clouds,dailyrainin,SolarRadiationWatts/m^2,SoftwareType,DateUTC
2013-06-30 00:02:00,63.0,54.0,-100.00,NNE,23,4.0,9.0,72,0.00,,,0.03,0.000000,,2013-06-30 05:02:00,
2013-06-30 00:34:00,62.0,51.0,-100.00,NNE,23,4.0,10.0,66,0.00,,,0.03,0.000000,,2013-06-30 05:34:00,
2013-06-30 00:43:00,62.0,51.0,-100.00,NNE,23,4.0,10.0,66,0.00,,,0.03,0.000000,,2013-06-30 05:43:00,
2013-06-30 00:53:00,62.0,51.0,-100.00,NNE,23,4.0,10.0,66,0.00,,,0.03,0.000000,,2013-06-30 05:53:00,
2013-06-30 01:02:00,62.0,51.0,-100.00,NNE,23,4.0,10.0,66,0.00,,,0.03,0.000000,,2013-06-30 06:02:00,
2013-06-30 01:34:00,59.0,50.0,-100.00,North,9,3.0,8.0,73,0.00,,,0.01,0.000000,,2013-06-30 06:34:00,
2013-06-30 01:43:00,59.0,50.0,-100.00,North,9,3.0,8.0,73,0.00,,,0.01,0.000000,,2013-06-30 06:43:00,
2013-06-30 01:53:00,59.0,50.0,-100.00,North,9,3.0,8.0,73,0.00,,,0.01,0.000000,,2013-06-30 06:53:00,
2013-06-30 02:02:00,59.0,50.0,-100.00,North,9,3.0,8.0,73,0.00,,,0.01,0.000000,,2013-06-30 07:02:00,
2013-06-30 02:33:00,57.0,50.0,-100.00,North,10,3.0,7.0,76,0.00,,,0.01,0.000000,,2013-06-30 07:33:00,
2013-06-30 02:44:00,57.0,50.0,-100.00,North,10,3.0,7.0,76,0.00,,,0.01,0.000000,,2013-06-30 07:44:00,
2013-06-30 02:53:00,57.0,50.0,-100.00,North,10,3.0,7.0,76,0.00,,,0.01,0.000000,,2013-06-30 07:53:00,
2013-06-30 03:02:00,57.0,50.0,-100.00,North,10,3.0,7.0,76,0.00,,,0.01,0.000000,,2013-06-30 08:02:00,
2013-06-30 03:34:00,56.0,50.0,-100.00,North,8,3.0,7.0,80,0.00,,,0.01,0.000000,,2013-06-30 08:34:00,
2013-06-30 03:42:00,56.0,50.0,-100.00,North,8,3.0,7.0,80,0.00,,,0.01,0.000000,,2013-06-30 08:42:00,
2013-06-30 03:53:00,56.0,50.0,-100.00,North,8,3.0,7.0,80,0.00,,,0.01,0.000000,,2013-06-30 08:53:00,
2013-06-30 04:01:00,56.0,50.0,-100.00,North,8,3.0,7.0,80,0.00,,,0.01,0.000000,,2013-06-30 09:01:00,
2013-06-30 04:34:00,55.0,49.0,-100.00,NNE,23,2.0,6.0,81,0.00,,,0.01,0.000000,,2013-06-30 09:34:00,
2013-06-30 04:43:00,55.0,49.0,-100.00,NNE,23,2.0,6.0,81,0.00,,,0.01,0.000000,,2013-06-30 09:43:00,
2013-06-30 04:53:00,55.0,49.0,-100.00,NNE,23,2.0,6.0,81,0.00,,,0.01,0.000000,,2013-06-30 09:53:00,
2013-06-30 05:02:00,55.0,49.0,-100.00,NNE,23,2.0,6.0,81,0.00,,,0.01,0.000000,,2013-06-30 10:02:00,
2013-06-30 05:34:00,54.0,49.0,-100.00,NNE,23,3.0,6.0,83,0.00,,,0.01,0.000000,,2013-06-30 10:34:00,
2013-06-30 05:43:00,54.0,49.0,-100.00,NNE,23,3.0,6.0,83,0.00,,,0.01,0.000000,,2013-06-30 10:43:00,
2013-06-30 05:53:00,54.0,49.0,-100.00,NNE,23,3.0,6.0,83,0.00,,,0.01,0.000000,,2013-06-30 10:53:00,
2013-06-30 06:02:00,54.0,49.0,-100.00,NNE,23,3.0,6.0,83,0.00,,,0.01,0.000000,,2013-06-30 11:02:00,
2013-06-30 06:33:00,54.0,49.0,-100.00,NNE,14,3.0,6.0,83,0.00,,,0.01,13.000000,,2013-06-30 11:33:00,
2013-06-30 06:43:00,54.0,49.0,-100.00,NNE,14,3.0,6.0,83,0.00,,,0.01,13.000000,,2013-06-30 11:43:00,
2013-06-30 06:53:00,54.0,49.0,-100.00,NNE,14,3.0,6.0,83,0.00,,,0.01,13.000000,,2013-06-30 11:53:00,
2013-06-30 07:02:00,54.0,49.0,-100.00,NNE,14,3.0,6.0,83,0.00,,,0.01,13.000000,,2013-06-30 12:02:00,
2013-06-30 07:33:00,57.0,50.0,-100.00,North,8,4.0,7.0,76,0.00,,,0.01,104.000000,,2013-06-30 12:33:00,
2013-06-30 07:43:00,57.0,50.0,-100.00,North,8,4.0,7.0,76,0.00,,,0.01,104.000000,,2013-06-30 12:43:00,
2013-06-30 07:52:00,57.0,50.0,-100.00,North,8,4.0,7.0,76,0.00,,,0.01,104.000000,,2013-06-30 12:52:00,
2013-06-30 08:02:00,57.0,50.0,-100.00,North,8,4.0,7.0,76,0.00,,,0.01,104.000000,,2013-06-30 13:02:00,
2013-06-30 08:34:00,61.0,50.0,-100.00,NNE,18,5.0,9.0,66,0.00,,,0.01,251.000000,,2013-06-30 13:34:00,
2013-06-30 08:44:00,61.0,50.0,-100.00,NNE,18,5.0,9.0,66,0.00,,,0.01,251.000000,,2013-06-30 13:44:00,
2013-06-30 08:53:00,61.0,50.0,-100.00,NNE,18,5.0,9.0,66,0.00,,,0.01,251.000000,,2013-06-30 13:53:00,
2013-06-30 09:02:00,61.0,50.0,-100.00,NNE,18,5.0,9.0,66,0.00,,,0.01,251.000000,,2013-06-30 14:02:00,
2013-06-30 09:33:00,66.0,50.0,-100.00,NNE,12,5.0,11.0,56,0.00,,,0.01,424.000000,,2013-06-30 14:33:00,
2013-06-30 09:44:00,66.0,50.0,-100.00,NNE,12,5.0,11.0,56,0.00,,,0.01,424.000000,,2013-06-30 14:44:00,
2013-06-30 09:52:00,66.0,50.0,-100.00,NNE,12,5.0,11.0,56,0.00,,,0.01,424.000000,,2013-06-30 14:52:00,
2013-06-30 10:02:00,66.0,50.0,-100.00,NNE,12,5.0,11.0,56,0.00,,,0.01,424.000000,,2013-06-30 15:02:00,
2013-06-30 10:35:00,71.0,50.0,-100.00,NNE,20,6.0,10.0,47,0.00,,,0.01,597.000000,,2013-06-30 15:35:00,
2013-06-30 10:44:00,71.0,50.0,-100.00,NNE,20,6.0,10.0,47,0.00,,,0.01,597.000000,,2013-06-30 15:44:00,
2013-06-30 10:53:00,71.0,50.0,-100.00,NNE,20,6.0,10.0,47,0.00,,,0.01,597.000000,,2013-06-30 15:53:00,
2013-06-30 11:01:00,71.0,50.0,-100.00,NNE,20,6.0,10.0,47,0.00,,,0.01,597.000000,,2013-06-30 16:01:00,
2013-06-30 11:34:00,73.0,49.0,-100.00,North,8,7.0,13.0,43,0.00,,,0.01,758.000000,,2013-06-30 16:34:00,
2013-06-30 11:44:00,73.0,49.0,-100.00,North,8,7.0,13.0,43,0.00,,,0.01,758.000000,,2013-06-30 16:44:00,
2013-06-30 11:53:00,73.0,49.0,-100.00,North,8,7.0,13.0,43,0.00,,,0.01,758.000000,,2013-06-30 16:53:00,
2013-06-30 12:02:00,73.0,49.0,-100.00,North,8,7.0,13.0,43,0.00,,,0.01,758.000000,,2013-06-30 17:02:00,
2013-06-30 12:34:00,76.0,49.0,-100.00,North,8,7.0,14.0,39,0.00,,,0.00,869.000000,,2013-06-30 17:34:00,
2013-06-30 12:43:00,76.0,49.0,-100.00,North,8,7.0,14.0,39,0.00,,,0.00,869.000000,,2013-06-30 17:43:00,
2013-06-30 12:53:00,76.0,49.0,-100.00,North,8,7.0,14.0,39,0.00,,,0.00,869.000000,,2013-06-30 17:53:00,
2013-06-30 13:02:00,76.0,49.0,-100.00,North,8,7.0,14.0,39,0.00,,,0.00,869.000000,,2013-06-30 18:02:00,
2013-06-30 13:34:00,77.0,47.0,-100.00,NNE,27,7.0,15.0,35,0.00,,,0.00,880.000000,,2013-06-30 18:34:00,
2013-06-30 13:43:00,77.0,47.0,-100.00,NNE,27,7.0,15.0,35,0.00,,,0.00,880.000000,,2013-06-30 18:43:00,
2013-06-30 13:53:00,77.0,47.0,-100.00,NNE,27,7.0,15.0,35,0.00,,,0.00,880.000000,,2013-06-30 18:53:00,
2013-06-30 14:01:00,77.0,47.0,-100.00,NNE,27,7.0,15.0,35,0.00,,,0.00,880.000000,,2013-06-30 19:01:00,
2013-06-30 14:33:00,79.0,43.0,-100.00,NE,36,7.0,14.0,28,0.00,,,0.00,893.000000,,2013-06-30 19:33:00,
2013-06-30 14:43:00,79.0,43.0,-100.00,NE,36,7.0,14.0,28,0.00,,,0.00,893.000000,,2013-06-30 19:43:00,
2013-06-30 14:53:00,79.0,43.0,-100.00,NE,36,7.0,14.0,28,0.00,,,0.00,893.000000,,2013-06-30 19:53:00,
2013-06-30 15:02:00,79.0,43.0,-100.00,NE,36,7.0,14.0,28,0.00,,,0.00,893.000000,,2013-06-30 20:02:00,
2013-06-30 15:34:00,80.0,42.0,-100.00,NE,35,6.0,16.0,26,0.00,,,0.00,861.000000,,2013-06-30 20:34:00,
2013-06-30 15:42:00,80.0,42.0,-100.00,NE,35,6.0,16.0,26,0.00,,,0.00,861.000000,,2013-06-30 20:42:00,
2013-06-30 15:52:00,80.0,42.0,-100.00,NE,35,6.0,16.0,26,0.00,,,0.00,861.000000,,2013-06-30 20:52:00,
2013-06-30 16:01:00,80.0,42.0,-100.00,NE,35,6.0,16.0,26,0.00,,,0.00,861.000000,,2013-06-30 21:01:00,
2013-06-30 16:34:00,80.0,42.0,-100.00,NNE,23,6.0,14.0,26,0.00,,,0.00,729.000000,,2013-06-30 21:34:00,
2013-06-30 16:43:00,80.0,42.0,-100.00,NNE,23,6.0,14.0,26,0.00,,,0.00,729.000000,,2013-06-30 21:43:00,
2013-06-30 16:53:00,80.0,42.0,-100.00,NNE,23,6.0,14.0,26,0.00,,,0.00,729.000000,,2013-06-30 21:53:00,
2013-06-30 17:01:00,80.0,42.0,-100.00,NNE,23,6.0,14.0,26,0.00,,,0.00,729.000000,,2013-06-30 22:01:00,
2013-06-30 17:34:00,80.0,41.0,-100.00,NNE,30,6.0,13.0,25,0.00,,,0.00,560.000000,,2013-06-30 22:34:00,
2013-06-30 17:43:00,80.0,41.0,-100.00,NNE,30,6.0,13.0,25,0.00,,,0.00,560.000000,,2013-06-30 22:43:00,
2013-06-30 17:53:00,80.0,41.0,-100.00,NNE,30,6.0,13.0,25,0.00,,,0.00,560.000000,,2013-06-30 22:53:00,
2013-06-30 18:02:00,80.0,41.0,-100.00,NNE,30,6.0,13.0,25,0.00,,,0.00,560.000000,,2013-06-30 23:02:00,
2013-06-30 18:33:00,79.0,40.0,-100.00,NNE,20,7.0,13.0,25,0.00,,,0.00,384.000000,,2013-06-30 23:33:00,
2013-06-30 18:44:00,79.0,40.0,-100.00,NNE,20,7.0,13.0,25,0.00,,,0.00,384.000000,,2013-06-30 23:44:00,
2013-06-30 18:53:00,79.0,40.0,-100.00,NNE,20,7.0,13.0,25,0.00,,,0.00,384.000000,,2013-06-30 23:53:00,
2013-06-30 19:01:00,79.0,40.0,-100.00,NNE,20,7.0,13.0,25,0.00,,,0.00,384.000000,,2013-07-01 00:01:00,
2013-06-30 19:33:00,79.0,45.0,-100.00,NE,56,3.0,11.0,30,0.00,,,0.00,272.000000,,2013-07-01 00:33:00,
2013-06-30 19:42:00,79.0,45.0,-100.00,NE,56,3.0,11.0,30,0.00,,,0.00,272.000000,,2013-07-01 00:42:00,
2013-06-30 19:52:00,79.0,45.0,-100.00,NE,56,3.0,11.0,30,0.00,,,0.00,272.000000,,2013-07-01 00:52:00,
2013-06-30 20:01:00,79.0,45.0,-100.00,NE,56,3.0,11.0,30,0.00,,,0.00,272.000000,,2013-07-01 01:01:00,
2013-06-30 20:34:00,75.0,51.0,-100.00,NE,46,1.0,5.0,43,0.00,,,0.00,122.000000,,2013-07-01 01:34:00,
2013-06-30 20:43:00,75.0,51.0,-100.00,NE,46,1.0,5.0,43,0.00,,,0.00,122.000000,,2013-07-01 01:43:00,
2013-06-30 20:52:00,75.0,51.0,-100.00,NE,46,1.0,5.0,43,0.00,,,0.00,122.000000,,2013-07-01 01:52:00,
2013-06-30 21:02:00,75.0,51.0,-100.00,NE,46,1.0,5.0,43,0.00,,,0.00,122.000000,,2013-07-01 02:02:00,
2013-06-30 23:43:00,54.0,54.0,-100.00,NE,43,0.0,0.0,99,0.00,,,0.00,0.000000,,2013-07-01 04:43:00,
2013-06-30 23:53:00,54.0,54.0,-100.00,NE,43,0.0,0.0,99,0.00,,,0.00,0.000000,,2013-07-01 04:53:00,